Etusivu
METAR-TAF:

METAR-TAF

Lentoasemat :

Tucumán, Argentiina

Leveyspiiri: 26-51S, Pituuspiiri: 065-06W, korkeus merenpinnasta: 440 m

Tämänhetkinen sää

Tämä raportti tehtiin 40 minuuttia sitten, kello 08.00 UTC
Tuuli 10 kn pohjoisesta
Lämpötila 27°C
Kosteus 66%
Ilmanpaine 1004 hPa
Näkyvyys 10 km tai enemmän
ei pilviä alle 1500 m:ssä eikä cumulonimbus-pilviä

METAR: SANT 110800Z 36010KT CAVOK 27/20 Q1004

Aika: 05:40 (08:40 UTC)

Sääennuste

Tämä raportti tehtiin 3 tuntia ja 40 minuuttia sitten, kello 05.00 UTC
Ennuste voimassa 11. päivästä klo 06 UTC - 12. päivään klo 06 UTC
Tuuli 5 kn pohjoisesta
Näkyvyys 10 km tai enemmän
Hajanaisia pilviä 3000 ft:n korkeudessa
Tulossa
11. päivästä klo 12 UTC - 11. päivään klo 15 UTC
Tuuli 5 kn etelästä
Näkyvyys 10 km tai enemmän
Hajanaisia pilviä 3000 ft:n korkeudessa

TAF: SANT 110500Z 1106/1206 36005KT 9999 SCT030 TX39/1118Z TN24/1108Z BECMG 1112/1115 18005KT 9999 SCT030

Säähavainnot ja -ennusteet yli 4000 lentoasemalta (METAR- ja TAF-raportit).

Käytössä olevat sääasemat on merkitty karttaan keltaisilla ja punaisilla pisteillä.

Aseta hiiri pisteen päälle nähdäksesi sääaseman nimen.

Klikkaa sitten nähdäksesi säähavainnot ja -ennusteet.

Kartan vaihtaminen: klikkaa mustalla rastilla varustettuja vihreitä pisteitä, niin voit zoomata sisään; viivalla varustettua vihreää pistettä, niin voit zoomata ulos tai vihreitä nuolia, niin pääset viereisille kartoille.


METAR-TAF: